Queralbs





Hora UTC 21:10
Temperatura 14.3 ºC
Humitat 64.0 %
Pressió 1020.1 hPa
Pluja 0.0 mm
Velocitat vent 0.0 km/h
Direcció vent WNW
Radiació solar 0.0 W/m²

Dades diàries 2022-08-19



Hora UTC (hivern +1h; estiu +2h)
Temperatura (ºC) Humitat (%) Pressió (hPa) Velocitat vent (km/h) Precipitació (mm) Radiació solar (W/m²)
Hora UTC Aire Humitat Pressió Vel. Dir. Vel. Max Dir. Intent. màx 5 min. Rad. Sol.
00:05 15.3 45.0 1017.1 4.8 ENE 4.8 0.0 0.0
00:10 15.3 46.0 1017.0 9.7 E 16.1 0.0 0.0
00:15 15.1 46.0 1016.9 8.0 NE 16.1 0.0 0.0
00:20 14.7 48.0 1017.0 1.6 ENE 16.1 0.0 0.0
00:25 14.3 50.0 1016.8 1.6 ENE 9.7 0.0 0.0
00:30 14.1 49.0 1016.7 0.0 NNE 6.4 0.0 0.0
00:35 13.9 49.0 1016.8 8.0 WSW 11.3 0.0 0.0
00:40 13.9 50.0 1016.7 1.6 WSW 11.3 0.0 0.0
00:45 13.6 52.0 1017.0 3.2 SSW 6.4 0.0 0.0
00:50 13.0 53.0 1017.1 0.0 SW 6.4 0.0 0.0
00:55 12.8 54.0 1017.2 3.2 SW 6.4 0.0 0.0
01:00 12.7 55.0 1017.1 3.2 SW 4.8 0.0 0.0
01:05 12.5 54.0 1017.1 4.8 W 8.0 0.0 0.0
01:10 12.5 55.0 1017.1 0.0 ENE 8.0 0.0 0.0
01:15 12.3 55.0 1016.7 12.9 N 14.5 0.0 0.0
01:20 12.9 53.0 1017.0 8.0 NE 17.7 0.0 0.0
01:25 13.5 50.0 1016.8 11.3 WNW 20.9 0.0 0.0
01:30 14.3 48.0 1016.9 3.2 NE 32.2 0.0 0.0
01:35 14.4 46.0 1016.8 3.2 ENE 32.2 0.0 0.0
01:40 14.4 45.0 1016.8 12.9 E 19.3 0.0 0.0
01:45 14.4 47.0 1016.9 6.4 S 14.5 0.0 0.0
01:50 13.9 50.0 1017.0 3.2 S 11.3 0.0 0.0
01:55 13.3 52.0 1016.9 8.0 S 11.3 0.0 0.0
02:00 12.7 53.0 1017.0 0.0 W 11.3 0.0 0.0
02:05 12.4 55.0 1017.1 9.7 WSW 11.3 0.0 0.0
02:10 12.3 55.0 1017.1 4.8 SW 11.3 0.0 0.0
02:15 12.3 55.0 1017.0 3.2 SW 11.3 0.0 0.0
02:20 12.1 54.0 1017.1 0.0 SW 6.4 0.0 0.0
02:25 11.9 56.0 1017.1 4.8 SW 6.4 0.0 0.0
02:30 11.7 56.0 1017.1 4.8 SW 6.4 0.0 0.0
02:35 11.6 58.0 1017.0 3.2 SW 6.4 0.0 0.0
02:40 11.6 57.0 1017.0 0.0 SW 6.4 0.0 0.0
02:45 11.4 58.0 1017.1 1.6 SW 6.4 0.0 0.0
02:50 11.2 57.0 1017.1 3.2 SW 3.2 0.0 0.0
02:55 11.3 58.0 1017.2 1.6 SW 4.8 0.0 0.0
03:00 11.2 58.0 1017.2 1.6 SW 4.8 0.0 0.0
03:05 11.2 58.0 1017.4 4.8 W 4.8 0.0 0.0
03:10 11.1 59.0 1017.5 0.0 NW 6.4 0.0 0.0
03:15 10.9 59.0 1017.5 0.0 NW 3.2 0.0 0.0
03:20 10.8 60.0 1017.4 0.0 NW 1.6 0.0 0.0
03:25 10.7 59.0 1017.5 0.0 NW 4.8 0.0 0.0
03:30 10.6 59.0 1017.6 1.6 NW 4.8 0.0 0.0
03:35 10.5 60.0 1017.6 0.0 NW 4.8 0.0 0.0
03:40 10.4 60.0 1017.4 1.6 NW 4.8 0.0 0.0
03:45 10.3 60.0 1017.6 1.6 NW 4.8 0.0 0.0
03:50 10.4 60.0 1017.4 4.8 WNW 6.4 0.0 0.0
03:55 10.6 60.0 1017.5 1.6 WNW 6.4 0.0 0.0
04:00 10.6 60.0 1017.5 0.0 WNW 4.8 0.0 0.0
04:05 10.6 60.0 1017.5 1.6 WNW 3.2 0.0 0.0
04:10 10.4 60.0 1017.5 0.0 WNW 4.8 0.0 0.0
04:15 10.4 60.0 1017.5 0.0 WNW 4.8 0.0 0.0
04:20 10.4 59.0 1017.6 0.0 WNW 4.8 0.0 0.0
04:25 10.4 61.0 1017.6 1.6 WNW 4.8 0.0 0.0
04:30 10.2 61.0 1017.7 3.2 WNW 4.8 0.0 0.0
04:35 10.2 61.0 1017.8 0.0 WNW 4.8 0.0 0.0
04:40 10.2 61.0 1017.8 1.6 WNW 4.8 0.0 0.0
04:40 10.2 61.0 1017.9 1.6 WNW 4.8 0.0 0.0
04:50 10.1 61.0 1017.9 1.6 WNW 3.2 0.0 0.0
04:55 10.1 61.0 1017.9 4.8 WNW 4.8 0.0 0.0
05:00 10.1 61.0 1018.1 0.0 WNW 4.8 0.0 0.0
05:05 10.2 62.0 1018.2 0.0 WNW 3.2 0.0 0.0
05:10 10.1 61.0 1018.2 0.0 WNW 3.2 0.0 0.0
05:15 10.1 62.0 1018.3 0.0 WNW 0.0 0.0 0.0
05:20 10.1 62.0 1018.2 0.0 WNW 0.0 0.0 0.0
05:25 9.9 62.0 1018.2 0.0 WNW 0.0 0.0 0.0
05:30 10.1 63.0 1018.3 0.0 WNW 0.0 0.0 0.0
05:35 10.0 62.0 1018.4 0.0 WNW 0.0 0.0 0.0
05:40 9.9 62.0 1018.2 0.0 WNW 0.0 0.0 0.0
05:45 10.1 61.0 1018.4 0.0 WNW 0.0 0.0 0.0
05:50 10.2 61.0 1018.3 0.0 WNW 0.0 0.0 0.0
05:55 10.2 61.0 1018.5 0.0 WNW 0.0 0.0 0.0
06:00 10.2 61.0 1018.7 0.0 WNW 0.0 0.0 0.0
06:05 10.2 62.0 1018.7 1.6 WNW 3.2 0.0 0.0
06:10 10.3 63.0 1018.9 0.0 WNW 3.2 0.0 0.0
06:15 10.3 62.0 1018.9 0.0 WNW 1.6 0.0 0.0
06:20 10.6 61.0 1019.0 0.0 WNW 4.8 0.0 0.0
06:25 11.2 60.0 1018.9 0.0 WNW 4.8 0.0 0.0
06:30 12.0 58.0 1019.0 3.2 WNW 6.4 0.0 0.0
06:35 12.8 57.0 1018.8 1.6 NW 6.4 0.0 0.0
06:40 13.3 56.0 1019.1 3.2 NW 6.4 0.0 0.0
06:45 13.7 56.0 1019.0 1.6 WNW 4.8 0.0 0.0
06:50 14.1 55.0 1019.0 3.2 WNW 4.8 0.0 0.0
06:55 14.6 53.0 1019.0 1.6 WNW 3.2 0.0 0.0
07:00 15.0 51.0 1019.1 0.0 WNW 3.2 0.0 0.0
07:05 15.3 50.0 1019.1 1.6 WNW 4.8 0.0 0.0
07:10 15.7 50.0 1019.2 1.6 WNW 4.8 0.0 0.0
07:15 16.0 49.0 1019.2 3.2 WNW 4.8 0.0 0.0
07:20 16.0 47.0 1019.1 1.6 WNW 4.8 0.0 0.0
07:25 16.2 51.0 1019.3 1.6 WNW 4.8 0.0 0.0
07:30 16.3 48.0 1019.2 1.6 WSW 4.8 0.0 0.0
07:35 16.6 45.0 1019.3 0.0 WSW 4.8 0.0 0.0
07:40 16.9 47.0 1019.3 3.2 WSW 4.8 0.0 0.0
07:45 17.0 44.0 1019.2 4.8 SW 6.4 0.0 0.0
07:50 17.0 43.0 1019.0 4.8 SE 8.0 0.0 0.0
07:55 17.1 45.0 1019.1 3.2 SE 6.4 0.0 0.0
08:00 17.5 46.0 1018.9 3.2 SE 6.4 0.0 0.0
08:05 17.8 43.0 1019.0 3.2 SE 6.4 0.0 0.0
08:10 17.8 42.0 1019.0 3.2 SE 8.0 0.0 0.0
08:15 17.8 35.0 1018.9 0.0 SE 8.0 0.0 0.0
08:20 18.1 37.0 1019.0 3.2 SE 6.4 0.0 0.0
08:25 18.6 39.0 1018.9 1.6 SE 6.4 0.0 0.0
08:30 18.9 38.0 1019.0 3.2 SE 6.4 0.0 0.0
08:35 19.1 34.0 1019.2 1.6 SE 6.4 0.0 0.0
08:40 19.4 38.0 1019.2 4.8 SE 11.3 0.0 0.0
08:45 19.7 38.0 1019.2 6.4 SE 11.3 0.0 0.0
08:50 19.9 36.0 1019.3 3.2 SE 6.4 0.0 0.0
08:55 20.1 38.0 1019.3 3.2 SE 6.4 0.0 0.0
09:00 20.2 35.0 1019.2 3.2 SE 8.0 0.0 0.0
09:05 20.3 36.0 1019.2 4.8 SE 8.0 0.0 0.0
09:10 20.4 36.0 1019.2 1.6 SE 8.0 0.0 0.0
09:15 20.7 35.0 1019.2 1.6 SE 6.4 0.0 0.0
09:20 20.8 37.0 1019.4 1.6 SE 9.7 0.0 0.0
09:25 21.0 35.0 1019.2 3.2 SE 9.7 0.0 0.0
09:30 20.9 35.0 1019.1 4.8 SE 8.0 0.0 0.0
09:30 21.1 38.0 1019.1 1.6 SE 8.0 0.0 0.0
09:35 21.3 35.0 1019.1 4.8 SSE 11.3 0.0 0.0
09:40 21.4 37.0 1019.1 6.4 SSE 11.3 0.0 0.0
09:50 21.4 34.0 1019.3 12.9 SSE 16.1 0.0 0.0
09:55 21.3 34.0 1019.2 4.8 SSE 14.5 0.0 0.0
10:00 21.4 32.0 1019.3 4.8 SSE 14.5 0.0 0.0
10:05 21.5 31.0 1019.4 12.9 SE 14.5 0.0 0.0
10:05 21.6 32.0 1019.4 9.7 SSE 14.5 0.0 0.0
10:15 21.7 31.0 1019.4 6.4 SSE 16.1 0.0 0.0
10:15 21.8 32.0 1019.3 3.2 SSE 16.1 0.0 0.0
10:25 22.0 35.0 1019.3 9.7 SSE 14.5 0.0 0.0
10:30 22.1 33.0 1019.3 8.0 SSE 19.3 0.0 0.0
10:30 22.1 35.0 1019.2 11.3 S 19.3 0.0 0.0
10:40 21.9 35.0 1019.4 11.3 SSE 14.5 0.0 0.0
10:45 21.8 34.0 1019.2 11.3 S 17.7 0.0 0.0
10:50 21.8 36.0 1019.3 11.3 S 22.5 0.0 0.0
10:55 21.8 36.0 1019.4 8.0 SSE 22.5 0.0 0.0
10:55 22.0 37.0 1019.5 8.0 S 19.3 0.0 0.0
11:05 22.2 35.0 1019.5 4.8 SSE 19.3 0.0 0.0
11:10 22.0 37.0 1019.3 11.3 SSE 16.1 0.0 0.0
11:15 22.1 37.0 1019.2 9.7 SSE 16.1 0.0 0.0
11:20 22.3 38.0 1019.3 9.7 SSE 16.1 0.0 0.0
11:25 22.3 38.0 1019.3 8.0 SSE 16.1 0.0 0.0
11:30 22.7 36.0 1019.2 9.7 SSE 17.7 0.0 0.0
11:35 22.7 37.0 1019.1 9.7 SSE 17.7 0.0 0.0
11:40 22.8 36.0 1019.0 11.3 SSE 14.5 0.0 0.0
11:40 23.1 37.0 1019.1 11.3 SSE 14.5 0.0 0.0
11:45 23.1 35.0 1019.1 9.7 SSE 12.9 0.0 0.0
11:55 23.2 34.0 1019.2 8.0 SE 14.5 0.0 0.0
11:55 23.2 35.0 1019.1 12.9 SSE 16.1 0.0 0.0
12:05 23.3 35.0 1019.0 8.0 SSE 16.1 0.0 0.0
12:10 23.3 35.0 1019.1 16.1 SSE 17.7 0.0 0.0
12:15 23.4 34.0 1019.0 9.7 SSE 16.1 0.0 0.0
12:20 23.2 34.0 1019.1 8.0 SSE 14.5 0.0 0.0
12:25 22.9 36.0 1018.9 9.7 SSE 14.5 0.0 0.0
12:30 23.1 36.0 1018.9 8.0 SSE 14.5 0.0 0.0
12:35 23.4 35.0 1018.8 11.3 SSE 22.5 0.0 0.0
12:40 23.4 35.0 1018.9 14.5 SE 17.7 0.0 0.0
12:45 23.4 35.0 1018.8 6.4 SSE 17.7 0.0 0.0
12:50 23.6 36.0 1018.8 14.5 SSE 19.3 0.0 0.0
12:55 23.7 35.0 1018.8 11.3 S 19.3 0.0 0.0
13:00 23.9 36.0 1018.8 9.7 SE 14.5 0.0 0.0
13:05 23.9 34.0 1018.9 6.4 SSE 16.1 0.0 0.0
13:10 23.7 34.0 1018.8 8.0 S 16.1 0.0 0.0
13:15 23.3 36.0 1018.8 6.4 S 16.1 0.0 0.0
13:20 23.3 37.0 1018.8 8.0 SSE 17.7 0.0 0.0
13:25 23.7 36.0 1018.8 3.2 SE 16.1 0.0 0.0
13:30 23.6 35.0 1018.8 12.9 S 19.3 0.0 0.0
13:35 23.3 37.0 1018.7 17.7 SSE 19.3 0.0 0.0
13:40 23.4 37.0 1018.8 9.7 S 16.1 0.0 0.0
13:45 23.6 36.0 1018.7 6.4 S 16.1 0.0 0.0
13:50 23.7 36.0 1018.7 6.4 SSE 16.1 0.0 0.0
13:55 23.4 35.0 1018.8 11.3 SE 16.1 0.0 0.0
14:00 22.9 36.0 1018.7 9.7 SSE 16.1 0.0 0.0
14:05 22.9 37.0 1018.7 9.7 S 17.7 0.0 0.0
14:10 22.9 37.0 1018.6 4.8 S 16.1 0.0 0.0
14:15 22.8 37.0 1018.6 9.7 SSE 22.5 0.0 0.0
14:20 23.0 37.0 1018.6 8.0 S 22.5 0.0 0.0
14:25 22.7 36.0 1018.7 9.7 S 14.5 0.0 0.0
14:30 22.2 39.0 1018.6 3.2 SSW 14.5 0.0 0.0
14:35 21.8 40.0 1018.6 6.4 SW 12.9 0.0 0.0
14:40 21.5 41.0 1018.6 1.6 S 12.9 0.0 0.0
14:45 21.9 41.0 1018.7 6.4 S 11.3 0.0 0.0
14:50 22.4 39.0 1018.8 4.8 S 12.9 0.0 0.0
14:55 22.9 37.0 1018.7 4.8 S 12.9 0.0 0.0
15:00 22.8 38.0 1018.7 6.4 SSW 14.5 0.0 0.0
15:05 22.6 40.0 1018.5 1.6 S 8.0 0.0 0.0
15:10 22.7 36.0 1018.5 4.8 S 12.9 0.0 0.0
15:15 22.4 40.0 1018.5 3.2 SW 12.9 0.0 0.0
15:20 22.4 39.0 1018.5 6.4 SSW 12.9 0.0 0.0
15:25 22.4 40.0 1018.5 4.8 S 14.5 0.0 0.0
15:30 22.3 39.0 1018.5 12.9 SSE 14.5 0.0 0.0
15:35 22.1 40.0 1018.6 8.0 S 14.5 0.0 0.0
15:40 22.1 41.0 1018.6 1.6 S 11.3 0.0 0.0
15:45 22.0 41.0 1018.7 4.8 S 11.3 0.0 0.0
15:50 21.7 40.0 1018.6 3.2 S 12.9 0.0 0.0
15:55 21.4 41.0 1018.6 4.8 S 12.9 0.0 0.0
16:00 21.4 41.0 1018.5 6.4 S 14.5 0.0 0.0
16:05 21.3 42.0 1018.5 6.4 S 14.5 0.0 0.0
16:10 21.2 42.0 1018.6 11.3 SSW 11.3 0.0 0.0
16:15 21.1 42.0 1018.5 8.0 S 11.3 0.0 0.0
16:20 20.9 43.0 1018.5 8.0 S 9.7 0.0 0.0
16:25 20.8 42.0 1018.6 3.2 S 9.7 0.0 0.0
16:30 20.9 43.0 1018.5 6.4 SSE 9.7 0.0 0.0
16:35 20.9 43.0 1018.2 6.4 SSE 8.0 0.0 0.0
16:40 20.8 45.0 1018.2 3.2 S 8.0 0.0 0.0
16:45 20.8 45.0 1018.3 0.0 S 8.0 0.0 0.0
16:50 20.8 45.0 1018.3 1.6 S 4.8 0.0 0.0
16:55 20.7 45.0 1018.3 1.6 S 4.8 0.0 0.0
17:00 20.8 47.0 1018.4 0.0 S 4.8 0.0 0.0
17:05 20.7 47.0 1018.3 0.0 S 4.8 0.0 0.0
17:10 20.6 47.0 1018.1 1.6 S 8.0 0.0 0.0
17:15 20.5 47.0 1018.3 6.4 SSW 8.0 0.0 0.0
17:20 20.4 50.0 1018.1 1.6 SSW 8.0 0.0 0.0
17:25 20.2 48.0 1018.1 1.6 SSW 6.4 0.0 0.0
17:30 20.1 49.0 1018.1 4.8 SSW 6.4 0.0 0.0
17:35 19.9 50.0 1018.0 3.2 SSW 6.4 0.0 0.0
17:40 19.8 49.0 1018.0 3.2 SSW 6.4 0.0 0.0
17:45 19.6 49.0 1018.0 3.2 SSW 4.8 0.0 0.0
17:50 19.6 50.0 1018.0 1.6 SSW 4.8 0.0 0.0
17:55 19.4 50.0 1018.0 0.0 SSW 4.8 0.0 0.0
18:00 19.3 53.0 1018.1 0.0 SSW 1.6 0.0 0.0
18:05 18.9 52.0 1018.0 1.6 SSW 1.6 0.0 0.0
18:05 18.9 54.0 1018.1 0.0 SSW 1.6 0.0 0.0
18:15 18.4 54.0 1018.4 0.0 SSW 3.2 0.0 0.0
18:15 18.2 55.0 1018.3 0.0 SSW 3.2 0.0 0.0
18:25 17.7 56.0 1018.3 0.0 SSW 0.0 0.0 0.0
18:30 17.4 55.0 1018.5 1.6 W 4.8 0.0 0.0
18:35 17.3 56.0 1018.3 0.0 W 4.8 0.0 0.0
18:40 17.2 56.0 1018.4 0.0 W 4.8 0.0 0.0
18:45 17.1 57.0 1018.4 1.6 W 3.2 0.0 0.0
18:50 16.9 57.0 1018.4 1.6 WNW 4.8 0.0 0.0
18:50 16.8 57.0 1018.5 1.6 WNW 4.8 0.0 0.0
18:55 16.7 57.0 1018.6 1.6 WNW 4.8 0.0 0.0
19:05 16.4 57.0 1018.7 0.0 WNW 3.2 0.0 0.0
19:10 16.4 59.0 1018.7 0.0 WNW 1.6 0.0 0.0
19:15 16.2 58.0 1018.6 0.0 WNW 1.6 0.0 0.0
19:15 16.2 60.0 1018.8 0.0 WNW 1.6 0.0 0.0
19:25 16.0 59.0 1019.1 0.0 WNW 1.6 0.0 0.0
19:30 15.9 60.0 1019.2 0.0 WNW 1.6 0.0 0.0
19:35 15.8 60.0 1019.3 0.0 WNW 1.6 0.0 0.0
19:40 15.7 60.0 1019.3 0.0 WNW 0.0 0.0 0.0
19:45 15.6 60.0 1019.1 0.0 WNW 0.0 0.0 0.0
19:50 15.4 61.0 1019.1 0.0 WNW 0.0 0.0 0.0
19:55 15.3 61.0 1019.2 0.0 WNW 0.0 0.0 0.0
20:00 15.3 61.0 1019.3 0.0 WNW 0.0 0.0 0.0
20:05 15.2 61.0 1019.4 0.0 WNW 0.0 0.0 0.0
20:10 15.1 62.0 1019.5 0.0 WNW 0.0 0.0 0.0
20:15 15.1 62.0 1019.3 0.0 WNW 0.0 0.0 0.0
20:20 14.9 62.0 1019.4 0.0 WNW 0.0 0.0 0.0
20:25 14.9 62.0 1019.6 0.0 WNW 0.0 0.0 0.0
20:30 14.8 62.0 1019.8 0.0 WNW 0.0 0.0 0.0
20:35 14.8 62.0 1020.0 0.0 WNW 0.0 0.0 0.0
20:40 14.7 62.0 1020.0 0.0 WNW 0.0 0.0 0.0
20:45 14.6 63.0 1020.0 0.0 WNW 0.0 0.0 0.0
20:50 14.4 63.0 1020.1 0.0 WNW 0.0 0.0 0.0
20:55 14.4 64.0 1020.0 0.0 WNW 0.0 0.0 0.0
21:00 14.4 64.0 1020.1 1.6 WNW 3.2 0.0 0.0
21:05 14.3 64.0 1020.1 1.6 WNW 3.2 0.0 0.0
21:10 14.3 64.0 1020.1 0.0 WNW 3.2 0.0 0.0
Màxima 24.0 64.0 1020.1 17.7 SSE 32.2 0.0 0.0
Mínima 9.9 31.0 1016.7
Total 0.0